TimeCEST,TemperatureF,Dew PointF,Humidity,Sea Level PressureIn,VisibilityMPH,Wind Direction,Wind SpeedMPH,Gust SpeedMPH,PrecipitationIn,Events,Conditions,WindDirDegrees,DateUTC
1:55 AM,41.0,32.0,70,30.12,-9999.0,NW,4.6,-,N/A,,Clear,310,2012-10-07 23:55:00
2:00 AM,42,32,57,,6,NW,4.6,,,,Partly Cloudy,310,2012-10-08 00:00:00
4:55 AM,39.2,24.8,56,30.12,-9999.0,West,4.6,-,N/A,,Clear,260,2012-10-08 02:55:00
5:00 AM,39,24,42,,6,West,4.6,,,,Clear,260,2012-10-08 03:00:00
5:55 AM,39.2,24.8,56,30.12,-9999.0,West,3.5,-,N/A,,Clear,260,2012-10-08 03:55:00
6:55 AM,39.2,21.2,49,30.12,-9999.0,SW,3.5,-,N/A,,Clear,230,2012-10-08 04:55:00
7:55 AM,39.2,17.6,42,30.12,-9999.0,SW,2.3,-,N/A,,Clear,230,2012-10-08 05:55:00
8:00 AM,39,18,29,,31,SW,2.3,,,,Partly Cloudy,230,2012-10-08 06:00:00
8:55 AM,39.2,14.0,36,30.12,-9999.0,NNE,5.8,-,N/A,,Clear,20,2012-10-08 06:55:00
9:55 AM,42.8,15.8,34,30.12,-9999.0,West,4.6,-,N/A,,Clear,280,2012-10-08 07:55:00
10:55 AM,42.8,17.6,36,30.12,-9999.0,NNE,2.3,-,N/A,,Clear,30,2012-10-08 08:55:00
11:00 AM,44,18,23,,47,NNE,2.3,,,,Partly Cloudy,30,2012-10-08 09:00:00
11:55 AM,46.4,21.2,37,30.12,-9999.0,WNW,5.8,-,N/A,,Clear,300,2012-10-08 09:55:00
12:55 PM,46.4,21.2,37,30.12,-9999.0,West,8.1,-,N/A,,Clear,280,2012-10-08 10:55:00
1:55 PM,46.4,28.4,50,30.12,6.2,West,9.2,-,N/A,,Partly Cloudy,280,2012-10-08 11:55:00
2:00 PM,46,29,38,,47,West,9.2,,,,Partly Cloudy,280,2012-10-08 12:00:00
2:55 PM,46.4,32.0,57,30.12,6.2,West,6.9,-,N/A,,Partly Cloudy,270,2012-10-08 12:55:00
3:55 PM,46.4,33.8,62,30.09,6.2,West,9.2,-,N/A,,Partly Cloudy,260,2012-10-08 13:55:00
4:55 PM,46.4,37.4,71,30.09,6.2,NNW,3.5,-,N/A,,Partly Cloudy,330,2012-10-08 14:55:00
5:00 PM,46,38,65,,25,NNW,3.5,,,,Mostly Cloudy,330,2012-10-08 15:00:00
5:55 PM,44.6,42.8,93,30.09,0.5,ESE,4.6,-,N/A,Fog,Fog,120,2012-10-08 15:55:00
6:55 PM,42.8,41.0,93,30.06,0.5,WNW,3.5,-,N/A,Fog,Fog,300,2012-10-08 16:55:00
7:55 PM,41.0,41.0,100,30.06,0.4,WNW,2.3,-,N/A,Fog,Fog,290,2012-10-08 17:55:00
8:00 PM,41,40,96,,0,WNW,2.3,,,Fog,Heavy Fog,290,2012-10-08 18:00:00
10:55 PM,42.8,37.4,81,30.06,0.5,WNW,3.5,-,N/A,Fog,Fog,300,2012-10-08 20:55:00
11:00 PM,42,38,81,,0,WNW,3.5,,,,Unknown,300,2012-10-08 21:00:00